Time;durP1;ratioP1;P1;durP2;ratioP2;P2;SDS_P1;SDS_P2;PMS_P1;PMS_P2;Temp;Humidity;BMP_temperature;BMP_pressure;BME280_temperature;BME280_humidity;BME280_pressure;Samples;Min_cycle;Max_cycle;Signal;HPM_P1;HPM_P2
2022/08/29 00:01:23;;;;;;;9.13;3.35;;;;;;;14.09;84.09;102118.44;5022233;28;20026;-69
2022/08/29 00:03:48;;;;;;;7.95;3.30;;;;;;;14.07;84.66;102114.19;5022710;28;20120;-69
2022/08/29 00:06:13;;;;;;;7.35;3.28;;;;;;;14.01;84.83;102102.97;5022396;28;20032;-69
2022/08/29 00:08:39;;;;;;;8.40;3.83;;;;;;;14.00;84.54;102117.84;5021400;28;20429;-69
2022/08/29 00:11:08;;;;;;;7.03;3.42;;;;;;;13.92;84.56;102115.34;5021913;28;20447;-69
2022/08/29 00:13:34;;;;;;;8.95;3.40;;;;;;;13.91;83.82;102110.88;5022008;28;20029;-69
2022/08/29 00:16:00;;;;;;;9.18;3.58;;;;;;;13.88;84.61;102113.25;5022260;28;20473;-69
2022/08/29 00:18:26;;;;;;;8.40;4.00;;;;;;;13.86;84.71;102113.47;5021822;28;20033;-68
2022/08/29 00:20:51;;;;;;;8.25;4.22;;;;;;;13.82;85.09;102112.22;5021708;28;20392;-69
2022/08/29 00:23:17;;;;;;;7.53;3.70;;;;;;;13.78;84.59;102116.47;5021999;28;20588;-69
2022/08/29 00:25:42;;;;;;;7.78;3.70;;;;;;;13.71;84.81;102104.63;5021294;28;20168;-68
2022/08/29 00:28:08;;;;;;;8.60;3.70;;;;;;;13.67;85.13;102106.13;5022031;28;20367;-68
2022/08/29 00:30:35;;;;;;;10.07;3.40;;;;;;;13.61;85.45;102109.78;5021863;28;20104;-68
2022/08/29 00:33:00;;;;;;;7.53;3.10;;;;;;;13.57;85.88;102105.75;5021402;28;20116;-69
2022/08/29 00:35:29;;;;;;;9.05;3.90;;;;;;;13.53;86.22;102110.03;5022132;28;20417;-68
2022/08/29 00:37:55;;;;;;;8.98;3.88;;;;;;;13.48;86.03;102114.31;5020740;28;20045;-68
2022/08/29 00:40:28;;;;;;;9.23;3.70;;;;;;;13.42;86.32;102117.09;5021343;28;20389;-67
2022/08/29 00:42:53;;;;;;;8.13;3.90;;;;;;;13.38;85.87;102116.69;5039038;28;20040;-69
2022/08/29 00:45:19;;;;;;;7.78;3.40;;;;;;;13.32;85.55;102128.56;5041713;28;20028;-69
2022/08/29 00:47:59;;;;;;;7.13;3.10;;;;;;;13.26;85.09;102129.47;5041611;28;20175;-69
2022/08/29 00:50:30;;;;;;;8.20;3.75;;;;;;;13.15;85.09;102135.63;5041961;28;20017;-68
2022/08/29 00:52:57;;;;;;;9.23;3.55;;;;;;;13.11;85.59;102126.06;5040630;28;20025;-69
2022/08/29 00:55:25;;;;;;;12.18;3.42;;;;;;;13.06;86.32;102134.16;5041578;28;20411;-68
2022/08/29 00:57:55;;;;;;;9.30;3.58;;;;;;;13.01;86.34;102126.53;5036410;28;20052;-69
2022/08/29 01:00:22;;;;;;;6.82;3.25;;;;;;;12.96;86.45;102121.66;5021136;28;20041;-68
2022/08/29 01:02:47;;;;;;;7.55;3.15;;;;;;;12.86;85.67;102123.16;5022103;28;20037;-69
2022/08/29 01:05:16;;;;;;;6.43;3.13;;;;;;;12.74;86.25;102125.72;5024277;22;20077;-69
2022/08/29 01:07:42;;;;;;;6.28;3.17;;;;;;;12.62;86.78;102127.41;5021804;28;20079;-69
2022/08/29 01:10:08;;;;;;;9.75;3.25;;;;;;;12.55;87.21;102127.44;5022490;28;20148;-69
2022/08/29 01:12:34;;;;;;;7.85;3.35;;;;;;;12.43;87.50;102135.50;5022563;28;20025;-68
2022/08/29 01:15:04;;;;;;;7.85;3.33;;;;;;;12.48;87.84;102129.34;5022210;28;20017;-69
2022/08/29 01:17:36;;;;;;;7.70;3.15;;;;;;;12.40;88.73;102132.31;5022480;28;20029;-69
2022/08/29 01:20:23;;;;;;;6.50;3.05;;;;;;;12.39;89.28;102130.63;5022066;28;20033;-69
2022/08/29 01:23:11;;;;;;;8.30;3.45;;;;;;;12.36;89.64;102129.13;5014096;28;20527;-68
2022/08/29 01:25:43;;;;;;;9.15;3.55;;;;;;;12.29;89.86;102132.94;5001471;28;20373;-68
2022/08/29 01:28:17;;;;;;;8.27;3.17;;;;;;;12.29;89.79;102132.94;5002038;28;20475;-69
2022/08/29 01:31:02;;;;;;;7.30;3.28;;;;;;;12.29;90.11;102128.28;5001730;28;20014;-69
2022/08/29 01:33:37;;;;;;;7.78;3.33;;;;;;;12.28;89.81;102128.50;5001667;28;20030;-69
2022/08/29 01:36:03;;;;;;;8.80;3.78;;;;;;;12.24;89.59;102128.06;5001299;28;20100;-68
2022/08/29 01:38:28;;;;;;;6.88;3.53;;;;;;;12.24;90.05;102119.78;5000466;28;20678;-69
2022/08/29 01:40:55;;;;;;;5.18;2.97;;;;;;;12.19;89.24;102116.81;5001646;28;20018;-69
2022/08/29 01:43:21;;;;;;;7.30;3.30;;;;;;;12.17;88.88;102116.19;5001408;28;20349;-69
2022/08/29 01:45:47;;;;;;;6.05;3.00;;;;;;;12.13;88.42;102117.69;5001761;28;20286;-69
2022/08/29 01:48:13;;;;;;;6.68;3.55;;;;;;;12.04;88.55;102118.94;5001155;28;20028;-69
2022/08/29 01:50:38;;;;;;;7.72;3.38;;;;;;;12.04;88.86;102113.41;5001882;28;20117;-69
2022/08/29 01:53:03;;;;;;;6.35;3.63;;;;;;;11.98;89.44;102114.25;5000202;28;20020;-69
2022/08/29 01:55:28;;;;;;;6.63;3.25;;;;;;;11.92;89.47;102111.28;5001435;28;20026;-69
2022/08/29 01:57:54;;;;;;;6.35;3.03;;;;;;;11.93;89.72;102129.50;5001464;28;20048;-69
2022/08/29 02:00:19;;;;;;;7.05;3.33;;;;;;;11.89;89.65;102128.22;5005908;28;20279;-69
2022/08/29 02:02:45;;;;;;;8.10;3.20;;;;;;;11.87;89.84;102123.97;5000885;28;20030;-69
2022/08/29 02:05:10;;;;;;;6.85;3.38;;;;;;;11.90;90.49;102124.41;4981899;28;20042;-69
2022/08/29 02:07:37;;;;;;;6.97;3.65;;;;;;;11.91;90.37;102130.75;4984866;28;20037;-69
2022/08/29 02:10:04;;;;;;;7.78;3.50;;;;;;;11.88;90.14;102122.91;4985310;28;20105;-69
2022/08/29 02:12:30;;;;;;;9.30;4.05;;;;;;;11.92;90.73;102119.53;4985305;28;20066;-69
2022/08/29 02:14:55;;;;;;;8.50;4.05;;;;;;;11.92;91.32;102119.53;4985667;28;20058;-69
2022/08/29 02:17:21;;;;;;;7.57;3.30;;;;;;;11.91;90.16;102115.09;4984784;28;20034;-69
2022/08/29 02:19:46;;;;;;;7.13;3.58;;;;;;;11.82;90.20;102116.34;4985512;28;20204;-69
2022/08/29 02:22:12;;;;;;;7.85;3.70;;;;;;;11.75;89.91;102114.59;4985453;28;20026;-69
2022/08/29 02:24:37;;;;;;;7.32;3.70;;;;;;;11.68;90.68;102115.41;4983855;28;20042;-69
2022/08/29 02:27:03;;;;;;;7.95;3.75;;;;;;;11.62;90.65;102116.25;4985541;28;20385;-70
2022/08/29 02:29:28;;;;;;;8.43;3.92;;;;;;;11.61;91.07;102124.72;4985275;28;20034;-69
2022/08/29 02:31:54;;;;;;;8.85;4.32;;;;;;;11.60;91.33;102126.59;4984918;28;20106;-70
2022/08/29 02:34:19;;;;;;;7.72;4.18;;;;;;;11.64;91.90;102127.03;4984994;28;20026;-69
2022/08/29 02:36:45;;;;;;;7.82;4.10;;;;;;;11.69;91.86;102128.13;4984986;28;20517;-69
2022/08/29 02:39:10;;;;;;;8.23;4.05;;;;;;;11.70;91.91;102137.22;4984382;28;20033;-69
2022/08/29 02:41:36;;;;;;;6.80;3.92;;;;;;;11.75;91.36;102137.44;4984483;28;20034;-70
2022/08/29 02:44:02;;;;;;;7.80;4.25;;;;;;;11.83;91.11;102142.81;4984829;28;20022;-69
2022/08/29 02:46:27;;;;;;;7.35;4.57;;;;;;;11.83;90.94;102147.47;4985034;28;20033;-69
2022/08/29 02:48:53;;;;;;;9.90;4.68;;;;;;;11.82;91.06;102149.38;4984534;28;20432;-70
2022/08/29 02:51:26;;;;;;;8.73;4.15;;;;;;;11.84;91.80;102149.16;4985446;28;20151;-70
2022/08/29 02:53:52;;;;;;;9.27;4.70;;;;;;;11.87;92.50;102144.09;4994936;28;20029;-69
2022/08/29 02:56:18;;;;;;;10.05;4.60;;;;;;;11.90;92.58;102143.66;5004254;28;20428;-69
2022/08/29 02:58:44;;;;;;;10.10;4.90;;;;;;;11.89;92.14;102146.63;5004532;28;20026;-69
2022/08/29 03:01:09;;;;;;;9.52;4.32;;;;;;;11.92;92.30;102149.84;5004339;28;21111;-68
2022/08/29 03:03:35;;;;;;;7.70;4.50;;;;;;;11.92;92.56;102155.34;5006105;28;20112;-69
2022/08/29 03:06:00;;;;;;;9.65;4.40;;;;;;;11.92;92.50;102147.06;5023620;28;20048;-70
2022/08/29 03:08:26;;;;;;;6.68;3.95;;;;;;;11.93;91.75;102140.50;5023044;28;20108;-69
2022/08/29 03:10:51;;;;;;;6.80;3.80;;;;;;;11.89;91.16;102139.22;5013475;28;20021;-70
2022/08/29 03:13:17;;;;;;;7.25;3.63;;;;;;;11.86;90.40;102136.03;5003970;28;20026;-69
2022/08/29 03:15:42;;;;;;;7.05;3.50;;;;;;;11.81;90.38;102133.91;5003075;28;20034;-69
2022/08/29 03:18:08;;;;;;;8.18;3.90;;;;;;;11.82;90.87;102132.88;5003540;28;20036;-69
2022/08/29 03:20:35;;;;;;;9.60;3.72;;;;;;;11.77;91.02;102134.50;4985953;28;20051;-69
2022/08/29 03:23:01;;;;;;;7.95;4.07;;;;;;;11.74;90.80;102130.25;5003256;28;20097;-69
2022/08/29 03:25:26;;;;;;;8.27;4.35;;;;;;;11.70;90.78;102131.72;5003825;28;20128;-69
2022/08/29 03:27:51;;;;;;;9.73;4.43;;;;;;;11.69;91.59;102136.38;5003074;28;20485;-69
2022/08/29 03:30:17;;;;;;;7.70;4.05;;;;;;;11.69;91.30;102132.78;5004315;28;20029;-70
2022/08/29 03:32:43;;;;;;;7.78;4.10;;;;;;;11.66;91.83;102133.22;5003497;28;20076;-69
2022/08/29 03:35:10;;;;;;;7.20;3.50;;;;;;;11.62;90.92;102121.75;5003575;28;20377;-69
2022/08/29 03:37:35;;;;;;;5.57;3.70;;;;;;;11.57;90.08;102123.44;5002257;28;20285;-69
2022/08/29 03:40:03;;;;;;;8.10;3.70;;;;;;;11.51;90.23;102127.00;5003225;28;20022;-70
2022/08/29 03:42:29;;;;;;;;;;;;;;;11.65;89.06;102117.72;5003758;28;20022;-69
2022/08/29 03:44:54;;;;;;;7.28;3.45;;;;;;;11.44;89.36;102118.72;5006950;28;20090;-70
2022/08/29 03:47:19;;;;;;;8.80;3.78;;;;;;;11.40;90.58;102121.06;5003537;28;20026;-69
2022/08/29 03:49:44;;;;;;;5.90;3.70;;;;;;;11.36;90.56;102128.00;5002855;28;20116;-69
2022/08/29 03:52:10;;;;;;;7.72;3.78;;;;;;;11.31;90.73;102118.69;5002355;28;20029;-70
2022/08/29 03:54:36;;;;;;;7.85;3.53;;;;;;;11.28;91.03;102116.31;5003035;28;20022;-70
2022/08/29 03:57:05;;;;;;;7.25;4.65;;;;;;;11.21;91.84;102105.31;5003012;28;20022;-69
2022/08/29 03:59:31;;;;;;;7.15;4.28;;;;;;;11.21;92.48;102099.81;5002548;28;20045;-69
2022/08/29 04:01:57;;;;;;;7.72;4.35;;;;;;;11.17;92.83;102102.09;5002972;28;20368;-70
2022/08/29 04:07:08;;;;;;;8.10;4.75;;;;;;;11.09;92.53;102098.66;5001622;28;20040;-70
2022/08/29 04:09:35;;;;;;;6.50;4.10;;;;;;;11.02;92.84;102097.78;5002889;28;20030;-68
2022/08/29 04:12:01;;;;;;;8.45;5.20;;;;;;;10.99;93.13;102093.53;5002767;28;20516;-69
2022/08/29 04:14:26;;;;;;;6.50;4.38;;;;;;;10.97;93.39;102089.31;5002603;28;20125;-70
2022/08/29 04:16:51;;;;;;;8.93;4.82;;;;;;;11.00;93.47;102102.63;5002501;28;20377;-69
2022/08/29 04:19:18;;;;;;;10.02;5.03;;;;;;;11.03;93.29;102107.72;5003250;28;20026;-69
2022/08/29 04:21:44;;;;;;;8.65;5.18;;;;;;;11.06;93.65;102104.59;5002070;28;20509;-69
2022/08/29 04:24:11;;;;;;;8.38;4.93;;;;;;;11.12;93.47;102103.75;5002080;28;20419;-69
2022/08/29 04:26:37;;;;;;;9.68;5.05;;;;;;;11.14;93.76;102113.50;5002767;28;20029;-69
2022/08/29 04:29:03;;;;;;;9.90;5.53;;;;;;;11.18;93.73;102114.78;5001578;28;20045;-69
2022/08/29 04:31:29;;;;;;;9.85;5.68;;;;;;;11.19;93.87;102110.13;5002760;28;20065;-69
2022/08/29 04:33:54;;;;;;;9.80;5.32;;;;;;;11.22;93.50;102112.50;5001888;28;20050;-69
2022/08/29 04:36:19;;;;;;;9.95;5.25;;;;;;;11.21;93.49;102113.56;5003114;28;20026;-69
2022/08/29 04:38:45;;;;;;;9.02;5.38;;;;;;;11.23;92.65;102111.44;5001238;28;20041;-69
2022/08/29 04:41:14;;;;;;;10.85;5.53;;;;;;;11.26;92.56;102113.78;5002055;28;20099;-69
2022/08/29 04:43:40;;;;;;;9.20;4.95;;;;;;;11.24;92.43;102121.38;5002177;28;20135;-69
2022/08/29 04:46:06;;;;;;;8.95;4.80;;;;;;;11.20;92.13;102113.72;5001663;28;20026;-69
2022/08/29 04:48:32;;;;;;;7.22;4.53;;;;;;;11.15;92.42;102122.59;5002400;28;20080;-68
2022/08/29 04:50:59;;;;;;;8.43;4.60;;;;;;;11.13;92.93;102125.56;5002048;28;20045;-69
2022/08/29 04:53:26;;;;;;;12.05;5.35;;;;;;;11.14;93.27;102123.66;5001095;28;20018;-70
2022/08/29 04:56:02;;;;;;;11.18;5.55;;;;;;;11.09;93.72;102121.50;5001646;28;20292;-69
2022/08/29 04:58:28;;;;;;;9.68;5.38;;;;;;;11.10;94.02;102127.84;5002207;28;20025;-69
2022/08/29 05:00:54;;;;;;;8.32;5.15;;;;;;;11.14;94.35;102124.50;5001525;28;20388;-70
2022/08/29 05:03:20;;;;;;;9.45;5.15;;;;;;;11.13;94.48;102132.97;5002009;28;20034;-68
2022/08/29 05:06:06;;;;;;;11.68;5.60;;;;;;;11.20;95.15;102127.47;5002148;28;20480;-69
2022/08/29 05:08:32;;;;;;;10.63;5.75;;;;;;;11.21;94.31;102135.56;5013246;28;20191;-69
2022/08/29 05:10:58;;;;;;;9.15;5.82;;;;;;;11.24;94.27;102137.03;5021600;28;20484;-69
2022/08/29 05:13:23;;;;;;;8.60;4.97;;;;;;;11.23;93.45;102136.19;5021092;28;20022;-69
2022/08/29 05:15:49;;;;;;;8.38;4.90;;;;;;;11.24;93.20;102128.78;5021802;28;20037;-69
2022/08/29 05:18:16;;;;;;;8.57;5.32;;;;;;;11.22;92.71;102131.75;5021655;28;20013;-69
2022/08/29 05:20:44;;;;;;;9.77;5.40;;;;;;;11.18;92.57;102139.53;5021211;28;20052;-69
2022/08/29 05:23:10;;;;;;;9.38;5.00;;;;;;;11.15;92.96;102142.72;5020678;28;20036;-68
2022/08/29 05:25:36;;;;;;;10.13;5.32;;;;;;;11.21;92.96;102146.56;5019788;28;20228;-69
2022/08/29 05:28:02;;;;;;;9.65;5.10;;;;;;;11.21;93.63;102140.19;5021288;28;20384;-69
2022/08/29 05:30:27;;;;;;;9.90;5.85;;;;;;;11.22;93.75;102150.16;5021042;28;20120;-70
2022/08/29 05:32:56;;;;;;;8.15;5.55;;;;;;;11.28;94.31;102152.91;5020992;28;20160;-69
2022/08/29 05:35:21;;;;;;;;;;;;;;;11.48;92.44;102154.94;5021624;28;20021;-68
2022/08/29 05:37:46;;;;;;;9.23;5.73;;;;;;;11.51;93.66;102154.53;5020437;28;19913;-69
2022/08/29 05:40:11;;;;;;;9.98;6.00;;;;;;;11.57;93.56;102148.19;5005466;28;20283;-69
2022/08/29 05:42:37;;;;;;;9.80;6.03;;;;;;;11.72;93.57;102150.78;5018970;28;20239;-69
2022/08/29 05:45:06;;;;;;;9.25;5.63;;;;;;;11.79;94.11;102152.50;5005204;28;20030;-69
2022/08/29 05:47:31;;;;;;;10.48;6.10;;;;;;;11.82;94.07;102149.38;5004823;28;20037;-69
2022/08/29 05:49:57;;;;;;;12.60;5.72;;;;;;;11.85;94.24;102148.09;5005897;28;20392;-69
2022/08/29 05:52:23;;;;;;;9.82;6.25;;;;;;;11.92;93.96;102149.84;5004337;28;20029;-69
2022/08/29 05:54:49;;;;;;;10.75;6.25;;;;;;;12.02;94.42;102154.94;5005506;28;20101;-69
2022/08/29 05:57:18;;;;;;;14.13;7.07;;;;;;;12.06;94.45;102158.94;5005480;28;20029;-68
2022/08/29 05:59:44;;;;;;;11.43;7.28;;;;;;;12.12;94.30;102154.53;5004875;28;20026;-69
2022/08/29 06:02:10;;;;;;;12.40;7.72;;;;;;;12.22;94.62;102154.97;5005164;28;20037;-68
2022/08/29 06:04:36;;;;;;;12.20;7.00;;;;;;;12.31;94.57;102153.69;5004665;28;20065;-69
2022/08/29 06:07:01;;;;;;;13.00;7.15;;;;;;;12.41;94.01;102159.63;5004281;28;20370;-70
2022/08/29 06:09:27;;;;;;;12.57;7.20;;;;;;;12.49;93.90;102166.03;5004520;28;20523;-68
2022/08/29 06:11:53;;;;;;;12.88;7.90;;;;;;;12.56;94.12;102162.19;5004853;28;20030;-70
2022/08/29 06:14:19;;;;;;;12.50;7.82;;;;;;;12.64;94.28;102166.66;5005583;28;20018;-70
2022/08/29 06:16:44;;;;;;;15.88;8.45;;;;;;;12.76;94.17;102170.47;5015520;28;20148;-69
2022/08/29 06:19:10;;;;;;;16.73;8.98;;;;;;;12.82;94.29;102163.25;5006846;28;20565;-69
2022/08/29 06:21:36;;;;;;;16.20;8.32;;;;;;;12.87;94.52;102169.81;5024220;28;20207;-68
2022/08/29 06:24:02;;;;;;;15.40;9.15;;;;;;;12.92;94.34;102169.16;5023469;28;20425;-69
2022/08/29 06:26:27;;;;;;;18.90;9.52;;;;;;;12.99;93.67;102167.25;5024250;28;20394;-68
2022/08/29 06:28:52;;;;;;;16.40;9.07;;;;;;;13.06;93.35;102173.59;5006263;28;20025;-69
2022/08/29 06:31:21;;;;;;;15.38;9.93;;;;;;;13.12;93.08;102169.13;4990526;28;20072;-69
2022/08/29 06:33:49;;;;;;;16.15;9.38;;;;;;;13.23;93.76;102174.91;5024563;28;20026;-69
2022/08/29 06:36:15;;;;;;;19.60;10.23;;;;;;;13.32;93.17;102169.97;4988181;28;20030;-68
2022/08/29 06:38:41;;;;;;;19.00;11.10;;;;;;;13.39;93.49;102162.53;5018474;28;20359;-69
2022/08/29 06:41:10;;;;;;;19.50;11.40;;;;;;;13.49;93.30;102167.59;5004639;28;20022;-69
2022/08/29 06:43:36;;;;;;;18.63;11.15;;;;;;;13.58;93.46;102170.94;5012249;28;20342;-69
2022/08/29 06:46:01;;;;;;;19.67;11.40;;;;;;;13.68;93.59;102168.56;5024252;28;20049;-70
2022/08/29 06:48:27;;;;;;;21.40;11.52;;;;;;;13.78;93.37;102174.47;5023572;28;20022;-69
2022/08/29 06:50:52;;;;;;;27.50;11.98;;;;;;;13.92;91.67;102176.09;5023902;28;20129;-70
2022/08/29 06:53:19;;;;;;;28.52;12.38;;;;;;;14.01;89.74;102185.81;5023577;28;20049;-69
2022/08/29 06:55:44;;;;;;;31.65;12.90;;;;;;;14.14;89.67;102189.56;5015726;28;20137;-69
2022/08/29 06:58:10;;;;;;;24.38;13.23;;;;;;;14.19;88.50;102193.38;5003950;28;20459;-68
2022/08/29 07:00:39;;;;;;;24.88;12.50;;;;;;;14.32;88.98;102199.88;5004027;28;20440;-68
2022/08/29 07:03:04;;;;;;;25.73;13.20;;;;;;;14.41;89.40;102199.41;5003703;28;20026;-69
2022/08/29 07:05:30;;;;;;;26.73;13.25;;;;;;;14.53;88.30;102196.78;5003533;28;20562;-69
2022/08/29 07:07:55;;;;;;;24.83;12.45;;;;;;;14.63;87.52;102190.75;5003443;28;20026;-69
2022/08/29 07:10:20;;;;;;;29.90;13.68;;;;;;;14.80;87.58;102189.16;5003374;28;20048;-68
2022/08/29 07:12:46;;;;;;;24.00;13.18;;;;;;;15.01;87.27;102197.03;5004114;28;20030;-69
2022/08/29 07:15:11;;;;;;;27.02;13.77;;;;;;;15.28;84.12;102191.22;5004029;28;20479;-68
2022/08/29 07:17:36;;;;;;;34.03;14.35;;;;;;;15.53;82.06;102193.91;5003614;28;20113;-69
2022/08/29 07:20:02;;;;;;;24.02;13.23;;;;;;;15.69;81.72;102195.25;5003294;28;20153;-69
2022/08/29 07:22:28;;;;;;;25.63;12.55;;;;;;;15.88;80.96;102188.63;5002904;28;20401;-68
2022/08/29 07:24:54;;;;;;;24.98;11.75;;;;;;;16.11;79.31;102184.25;5003839;28;20030;-69
2022/08/29 07:27:20;;;;;;;24.38;13.40;;;;;;;16.29;79.55;102186.97;5003638;28;20029;-68
2022/08/29 07:29:46;;;;;;;22.85;12.95;;;;;;;16.37;78.38;102175.53;5003735;28;20026;-69
2022/08/29 07:32:11;;;;;;;21.92;13.20;;;;;;;16.40;77.66;102180.63;5003557;28;20033;-69
2022/08/29 07:34:37;;;;;;;25.00;14.07;;;;;;;16.46;78.13;102179.66;5002441;28;20018;-69
2022/08/29 07:37:03;;;;;;;24.08;11.68;;;;;;;16.50;74.17;102172.56;5002921;28;20037;-69
2022/08/29 07:39:29;;;;;;;25.33;12.52;;;;;;;16.49;74.68;102179.19;5003558;28;20025;-69
2022/08/29 07:41:54;;;;;;;26.77;14.05;;;;;;;16.60;76.08;102183.06;5002937;28;20056;-69
2022/08/29 07:44:20;;;;;;;32.63;13.70;;;;;;;16.72;75.75;102183.13;5003917;28;20022;-69
2022/08/29 07:46:45;;;;;;;23.17;13.20;;;;;;;16.87;74.51;102172.38;5003327;28;20087;-70
2022/08/29 07:49:11;;;;;;;25.27;13.18;;;;;;;16.98;74.30;102176.25;5003497;28;20026;-69
2022/08/29 07:51:37;;;;;;;28.45;13.55;;;;;;;17.07;72.46;102178.44;5002074;28;20025;-69
2022/08/29 07:54:03;;;;;;;22.55;12.90;;;;;;;17.14;70.87;102164.44;5003163;28;20030;-69
2022/08/29 07:56:33;;;;;;;30.70;13.30;;;;;;;17.20;71.50;102170.97;5003170;28;20025;-68
2022/08/29 07:58:58;;;;;;;29.20;13.63;;;;;;;17.36;71.60;102172.97;5002352;28;20034;-69
2022/08/29 08:01:25;;;;;;;27.30;13.75;;;;;;;17.42;70.24;102176.72;4985560;28;20029;-69
2022/08/29 08:03:51;;;;;;;25.60;13.82;;;;;;;17.45;70.23;102174.31;5001997;28;20486;-70
2022/08/29 08:06:21;;;;;;;31.27;13.25;;;;;;;17.56;70.15;102169.81;5003031;28;20392;-69
2022/08/29 08:08:47;;;;;;;29.02;13.93;;;;;;;17.62;69.34;102171.59;5003243;28;20022;-69
2022/08/29 08:11:14;;;;;;;27.42;12.77;;;;;;;17.75;69.52;102171.38;5002444;28;20461;-69
2022/08/29 08:13:39;;;;;;;26.73;12.20;;;;;;;17.83;68.75;102173.72;5002258;28;20026;-69
2022/08/29 08:16:08;;;;;;;23.63;13.18;;;;;;;17.82;69.63;102182.31;5002686;28;20116;-69
2022/08/29 08:18:35;;;;;;;25.63;12.68;;;;;;;17.83;67.90;102170.94;5002374;28;20759;-69
2022/08/29 08:21:01;;;;;;;31.23;13.57;;;;;;;17.93;67.60;102184.22;5002024;28;20038;-69
2022/08/29 08:23:26;;;;;;;25.15;13.77;;;;;;;17.98;68.02;102181.53;5001943;28;20436;-69
2022/08/29 08:25:52;;;;;;;26.20;13.82;;;;;;;18.05;66.41;102173.91;5002459;28;20030;-69
2022/08/29 08:28:17;;;;;;;26.20;12.90;;;;;;;18.09;66.56;102175.06;5002727;28;20412;-69
2022/08/29 08:30:43;;;;;;;21.15;12.70;;;;;;;18.13;66.48;102176.28;5002386;28;20071;-69
2022/08/29 08:33:09;;;;;;;27.20;13.75;;;;;;;18.23;68.63;102178.41;5002329;28;20018;-68
2022/08/29 08:35:36;;;;;;;22.40;12.75;;;;;;;18.31;67.14;102180.78;5002317;28;20432;-68
2022/08/29 08:38:05;;;;;;;27.98;12.57;;;;;;;18.25;66.07;102181.78;5001349;28;20473;-69
2022/08/29 08:40:31;;;;;;;26.25;12.75;;;;;;;18.31;66.46;102182.72;5002110;28;20384;-69
2022/08/29 08:43:00;;;;;;;22.35;12.98;;;;;;;18.32;67.06;102187.19;5002476;28;20119;-68
2022/08/29 08:45:38;;;;;;;22.00;12.27;;;;;;;18.30;68.58;102193.00;5002199;28;20156;-69
2022/08/29 08:48:10;;;;;;;22.65;11.90;;;;;;;18.33;66.41;102191.66;5002117;28;20083;-68
2022/08/29 08:50:42;;;;;;;22.50;12.48;;;;;;;18.44;66.02;102185.19;5001407;28;20113;-69
2022/08/29 08:53:16;;;;;;;21.80;11.18;;;;;;;18.53;65.95;102180.91;5001218;28;20030;-69
2022/08/29 08:55:44;;;;;;;25.23;9.65;;;;;;;18.93;62.52;102177.13;5002099;28;20815;-69
2022/08/29 08:58:22;;;;;;;25.25;9.48;;;;;;;19.10;61.79;102169.59;5001851;28;20195;-68
2022/08/29 09:00:54;;;;;;;24.02;10.75;;;;;;;19.49;60.84;102172.38;4986347;28;20018;-68
2022/08/29 09:03:32;;;;;;;18.83;9.45;;;;;;;19.90;59.07;102175.72;5002127;28;20037;-68
2022/08/29 09:06:06;;;;;;;18.35;8.80;;;;;;;20.41;57.03;102171.50;5001889;28;20495;-69
2022/08/29 09:08:41;;;;;;;17.73;6.70;;;;;;;20.55;54.52;102173.91;5000954;28;20014;-68
2022/08/29 09:11:40;;;;;;;16.88;6.45;;;;;;;20.57;56.53;102174.47;5001494;28;20030;-68
2022/08/29 09:14:23;;;;;;;15.13;4.47;;;;;;;20.15;53.60;102176.00;4976726;28;20061;-68
2022/08/29 09:16:52;;;;;;;14.00;5.15;;;;;;;19.92;53.76;102184.66;5001354;28;20022;-68
2022/08/29 09:19:17;;;;;;;11.77;5.47;;;;;;;19.83;53.61;102180.66;5002405;28;20108;-69
2022/08/29 09:21:51;;;;;;;13.63;4.93;;;;;;;19.72;53.02;102190.84;5000759;28;20467;-68
2022/08/29 09:24:34;;;;;;;11.43;4.30;;;;;;;19.65;53.48;102191.00;5001565;28;20029;-69
2022/08/29 09:26:59;;;;;;;12.18;4.95;;;;;;;19.58;53.38;102184.78;5001676;28;20358;-68
2022/08/29 09:29:28;;;;;;;13.93;5.33;;;;;;;19.59;53.59;102185.59;5001946;28;20057;-68
2022/08/29 09:32:13;;;;;;;14.32;4.95;;;;;;;19.60;54.48;102182.59;5001679;28;20687;-68
2022/08/29 09:34:43;;;;;;;15.95;4.75;;;;;;;19.55;52.67;102184.44;5001841;28;20061;-69
2022/08/29 09:37:30;;;;;;;16.13;4.90;;;;;;;19.44;54.83;102189.03;5001013;28;20077;-68
2022/08/29 09:40:12;;;;;;;12.23;4.78;;;;;;;19.42;54.21;102189.31;5001086;28;20033;-68
2022/08/29 09:42:41;;;;;;;14.57;4.82;;;;;;;19.54;52.96;102200.31;5001805;28;20054;-68
2022/08/29 09:45:19;;;;;;;15.57;4.82;;;;;;;19.66;54.46;102192.69;5001057;28;20057;-68
2022/08/29 09:47:44;;;;;;;11.90;4.07;;;;;;;19.89;52.10;102190.75;5001069;28;20030;-68
2022/08/29 09:50:16;;;;;;;12.55;4.35;;;;;;;20.16;53.52;102196.34;5001553;28;20041;-69
2022/08/29 09:52:50;;;;;;;13.00;4.60;;;;;;;21.26;51.37;102188.41;5005813;28;20578;-68
2022/08/29 09:55:25;;;;;;;10.27;3.97;;;;;;;22.24;49.74;102198.94;5021714;28;20067;-68
2022/08/29 09:57:54;;;;;;;13.07;3.95;;;;;;;22.90;46.00;102190.63;5021002;28;20041;-68
2022/08/29 10:00:28;;;;;;;9.57;4.15;;;;;;;22.65;45.03;102194.25;5021666;28;20034;-68
2022/08/29 10:02:57;;;;;;;10.82;3.95;;;;;;;21.84;46.30;102185.66;5020753;28;20027;-68
2022/08/29 10:05:49;;;;;;;12.15;4.18;;;;;;;21.33;49.12;102189.03;5020366;28;20048;-67
2022/08/29 10:08:29;;;;;;;10.73;4.10;;;;;;;22.22;45.97;102190.84;5017124;28;20115;-67
2022/08/29 10:10:58;;;;;;;13.18;3.92;;;;;;;23.00;42.35;102185.00;5016629;28;20070;-68
2022/08/29 10:13:36;;;;;;;8.70;4.03;;;;;;;22.84;44.23;102180.53;5000979;28;20227;-67
2022/08/29 10:16:08;;;;;;;11.80;4.22;;;;;;;23.54;43.38;102180.69;5000711;28;20034;-69
2022/08/29 10:18:48;;;;;;;8.93;3.85;;;;;;;24.52;42.73;102179.06;5000809;28;20076;-68
2022/08/29 10:21:13;;;;;;;9.43;4.10;;;;;;;25.43;39.08;102174.56;4999440;28;20397;-68
2022/08/29 10:23:52;;;;;;;10.37;4.00;;;;;;;26.33;37.56;102175.66;5001306;28;20054;-70
2022/08/29 10:26:24;;;;;;;11.18;4.03;;;;;;;27.03;36.81;102183.25;5003550;28;20030;-68
2022/08/29 10:29:25;;;;;;;10.50;4.30;;;;;;;26.80;37.10;102185.91;5005295;28;20029;-68
2022/08/29 10:32:09;;;;;;;12.05;3.70;;;;;;;25.64;37.84;102180.78;5004012;28;20022;-68
2022/08/29 10:34:44;;;;;;;10.55;3.72;;;;;;;26.56;37.46;102177.59;5004733;28;20073;-68
2022/08/29 10:37:22;;;;;;;11.55;3.85;;;;;;;27.24;36.27;102183.75;5003538;28;20029;-69
2022/08/29 10:39:47;;;;;;;;;;;;;;;27.90;37.27;102173.94;5005602;28;20052;-68
2022/08/29 10:42:15;;;;;;;9.75;4.07;;;;;;;27.93;33.45;102168.50;5003778;28;19909;-67
2022/08/29 10:45:02;;;;;;;10.50;3.60;;;;;;;28.22;35.16;102180.56;5004564;28;20034;-69
2022/08/29 10:47:46;;;;;;;8.85;3.58;;;;;;;27.89;35.92;102172.28;5003629;28;20052;-67
2022/08/29 10:50:14;;;;;;;10.23;4.25;;;;;;;29.07;30.59;102167.44;5004400;28;20040;-68
2022/08/29 10:53:18;;;;;;;7.97;3.55;;;;;;;30.75;31.46;102171.66;5003553;28;20030;-68
2022/08/29 10:55:58;;;;;;;10.88;3.88;;;;;;;31.61;28.79;102163.22;4995178;28;20037;-67
2022/08/29 10:58:51;;;;;;;13.82;4.22;;;;;;;32.32;28.54;102160.41;5004278;28;20026;-67
2022/08/29 11:01:24;;;;;;;7.90;3.10;;;;;;;32.56;27.22;102150.34;5003835;28;20439;-67
2022/08/29 11:04:17;;;;;;;8.07;3.95;;;;;;;32.50;27.92;102149.75;5007801;28;20038;-68
2022/08/29 11:06:54;;;;;;;9.20;3.75;;;;;;;30.82;28.45;102153.28;5003123;28;20029;-67
2022/08/29 11:09:34;;;;;;;10.47;3.43;;;;;;;31.07;29.50;102143.03;5004505;28;20105;-67
2022/08/29 11:12:30;;;;;;;8.68;3.30;;;;;;;32.16;29.47;102136.63;4985926;28;20055;-67
2022/08/29 11:15:02;;;;;;;8.60;3.42;;;;;;;32.71;26.69;102144.00;5003473;28;20350;-68
2022/08/29 11:17:37;;;;;;;7.60;3.30;;;;;;;31.22;28.71;102140.47;5003377;28;20014;-67
2022/08/29 11:20:10;;;;;;;8.95;3.22;;;;;;;28.79;32.00;102142.13;5003295;28;20030;-67
2022/08/29 11:23:00;;;;;;;8.02;3.35;;;;;;;27.36;35.20;102130.44;5003021;28;20026;-67
2022/08/29 11:25:26;;;;;;;10.43;3.72;;;;;;;26.14;35.72;102134.25;5003357;28;20026;-67
2022/08/29 11:28:09;;;;;;;7.22;3.35;;;;;;;25.21;36.52;102121.69;5002984;28;20030;-67
2022/08/29 11:31:01;;;;;;;10.82;4.10;;;;;;;25.05;38.58;102114.53;5003864;28;20084;-67